sensor_id;sensor_type;location;lat;lon;timestamp;temperature;humidity
15690;DHT22;7945;48.816;11.506;2023-03-14T00:01:08;11.90;99.90
15690;DHT22;7945;48.816;11.506;2023-03-14T00:03:35;11.90;99.90
15690;DHT22;7945;48.816;11.506;2023-03-14T00:06:04;11.90;99.90
15690;DHT22;7945;48.816;11.506;2023-03-14T00:08:31;11.80;99.90
15690;DHT22;7945;48.816;11.506;2023-03-14T00:10:58;11.80;99.90
15690;DHT22;7945;48.816;11.506;2023-03-14T00:13:24;11.80;99.90
15690;DHT22;7945;48.816;11.506;2023-03-14T00:15:51;11.80;99.90
15690;DHT22;7945;48.816;11.506;2023-03-14T00:18:18;11.70;99.90
15690;DHT22;7945;48.816;11.506;2023-03-14T00:20:45;11.60;99.90
15690;DHT22;7945;48.816;11.506;2023-03-14T00:23:13;11.60;99.90
15690;DHT22;7945;48.816;11.506;2023-03-14T00:25:40;11.50;99.90
15690;DHT22;7945;48.816;11.506;2023-03-14T00:28:07;11.50;99.90
15690;DHT22;7945;48.816;11.506;2023-03-14T00:30:33;11.40;99.90
15690;DHT22;7945;48.816;11.506;2023-03-14T00:33:00;11.40;99.90
15690;DHT22;7945;48.816;11.506;2023-03-14T00:35:27;11.30;99.90
15690;DHT22;7945;48.816;11.506;2023-03-14T00:37:53;11.30;99.90
15690;DHT22;7945;48.816;11.506;2023-03-14T00:40:21;11.30;99.90
15690;DHT22;7945;48.816;11.506;2023-03-14T00:42:48;11.30;99.90
15690;DHT22;7945;48.816;11.506;2023-03-14T00:45:15;11.20;99.90
15690;DHT22;7945;48.816;11.506;2023-03-14T00:47:41;11.20;99.90
15690;DHT22;7945;48.816;11.506;2023-03-14T00:50:11;11.20;99.90
15690;DHT22;7945;48.816;11.506;2023-03-14T00:52:38;11.20;99.90
15690;DHT22;7945;48.816;11.506;2023-03-14T00:55:05;11.20;99.90
15690;DHT22;7945;48.816;11.506;2023-03-14T00:57:33;11.20;99.90
15690;DHT22;7945;48.816;11.506;2023-03-14T01:00:00;11.20;99.90
15690;DHT22;7945;48.816;11.506;2023-03-14T01:02:26;11.20;99.90
15690;DHT22;7945;48.816;11.506;2023-03-14T01:04:53;11.20;99.90
15690;DHT22;7945;48.816;11.506;2023-03-14T01:07:20;11.10;99.90
15690;DHT22;7945;48.816;11.506;2023-03-14T01:09:46;11.10;99.90
15690;DHT22;7945;48.816;11.506;2023-03-14T01:12:13;11.10;99.90
15690;DHT22;7945;48.816;11.506;2023-03-14T01:14:41;11.10;99.90
15690;DHT22;7945;48.816;11.506;2023-03-14T01:17:08;11.10;99.90
15690;DHT22;7945;48.816;11.506;2023-03-14T01:19:35;11.10;99.90
15690;DHT22;7945;48.816;11.506;2023-03-14T01:22:01;11.00;99.90
15690;DHT22;7945;48.816;11.506;2023-03-14T01:24:28;10.90;99.90
15690;DHT22;7945;48.816;11.506;2023-03-14T01:26:55;10.90;99.90
15690;DHT22;7945;48.816;11.506;2023-03-14T01:29:21;10.90;99.90
15690;DHT22;7945;48.816;11.506;2023-03-14T01:31:49;10.80;99.90
15690;DHT22;7945;48.816;11.506;2023-03-14T01:34:16;10.80;99.90
15690;DHT22;7945;48.816;11.506;2023-03-14T01:36:43;10.80;99.90
15690;DHT22;7945;48.816;11.506;2023-03-14T01:39:09;10.80;99.90
15690;DHT22;7945;48.816;11.506;2023-03-14T01:41:36;10.70;99.90
15690;DHT22;7945;48.816;11.506;2023-03-14T01:44:03;10.70;99.90
15690;DHT22;7945;48.816;11.506;2023-03-14T01:46:38;10.70;99.90
15690;DHT22;7945;48.816;11.506;2023-03-14T01:49:19;10.70;99.90
15690;DHT22;7945;48.816;11.506;2023-03-14T01:51:51;10.70;99.90
15690;DHT22;7945;48.816;11.506;2023-03-14T01:54:22;10.60;99.90
15690;DHT22;7945;48.816;11.506;2023-03-14T01:56:54;10.70;99.90
15690;DHT22;7945;48.816;11.506;2023-03-14T01:59:22;10.60;99.90
15690;DHT22;7945;48.816;11.506;2023-03-14T02:01:50;10.70;99.90
15690;DHT22;7945;48.816;11.506;2023-03-14T02:04:19;10.70;99.90
15690;DHT22;7945;48.816;11.506;2023-03-14T02:06:52;10.80;99.90
15690;DHT22;7945;48.816;11.506;2023-03-14T02:09:21;10.80;99.90
15690;DHT22;7945;48.816;11.506;2023-03-14T02:11:47;10.90;99.90
15690;DHT22;7945;48.816;11.506;2023-03-14T02:14:25;10.90;99.90
15690;DHT22;7945;48.816;11.506;2023-03-14T02:16:54;10.80;99.90
15690;DHT22;7945;48.816;11.506;2023-03-14T02:19:28;10.90;99.90
15690;DHT22;7945;48.816;11.506;2023-03-14T02:22:02;10.90;99.90
15690;DHT22;7945;48.816;11.506;2023-03-14T02:24:36;10.80;99.90
15690;DHT22;7945;48.816;11.506;2023-03-14T02:27:10;10.90;99.90
15690;DHT22;7945;48.816;11.506;2023-03-14T02:29:41;10.90;99.90
15690;DHT22;7945;48.816;11.506;2023-03-14T02:32:12;10.90;99.90
15690;DHT22;7945;48.816;11.506;2023-03-14T02:34:40;10.90;99.90
15690;DHT22;7945;48.816;11.506;2023-03-14T02:37:09;10.90;99.90
15690;DHT22;7945;48.816;11.506;2023-03-14T02:39:39;10.80;99.90
15690;DHT22;7945;48.816;11.506;2023-03-14T02:42:06;10.70;99.90
15690;DHT22;7945;48.816;11.506;2023-03-14T02:44:34;10.70;99.90
15690;DHT22;7945;48.816;11.506;2023-03-14T02:47:02;10.70;99.90
15690;DHT22;7945;48.816;11.506;2023-03-14T02:49:31;10.70;99.90
15690;DHT22;7945;48.816;11.506;2023-03-14T02:52:00;10.70;99.90
15690;DHT22;7945;48.816;11.506;2023-03-14T02:54:26;10.70;99.90
15690;DHT22;7945;48.816;11.506;2023-03-14T02:56:53;10.60;99.90
15690;DHT22;7945;48.816;11.506;2023-03-14T02:59:20;10.60;99.90
15690;DHT22;7945;48.816;11.506;2023-03-14T03:01:48;10.60;99.90
15690;DHT22;7945;48.816;11.506;2023-03-14T03:04:14;10.60;99.90
15690;DHT22;7945;48.816;11.506;2023-03-14T03:06:41;10.50;99.90
15690;DHT22;7945;48.816;11.506;2023-03-14T03:09:08;10.60;99.90
15690;DHT22;7945;48.816;11.506;2023-03-14T03:11:34;10.50;99.90
15690;DHT22;7945;48.816;11.506;2023-03-14T03:14:01;10.50;99.90
15690;DHT22;7945;48.816;11.506;2023-03-14T03:16:28;10.50;99.90
15690;DHT22;7945;48.816;11.506;2023-03-14T03:18:56;10.40;99.90
15690;DHT22;7945;48.816;11.506;2023-03-14T03:21:23;10.50;99.90
15690;DHT22;7945;48.816;11.506;2023-03-14T03:23:50;10.50;99.90
15690;DHT22;7945;48.816;11.506;2023-03-14T03:26:17;10.50;99.90
15690;DHT22;7945;48.816;11.506;2023-03-14T03:28:43;10.50;99.90
15690;DHT22;7945;48.816;11.506;2023-03-14T03:31:11;10.50;99.90
15690;DHT22;7945;48.816;11.506;2023-03-14T03:33:38;10.50;99.90
15690;DHT22;7945;48.816;11.506;2023-03-14T03:36:08;10.50;99.90
15690;DHT22;7945;48.816;11.506;2023-03-14T03:38:35;10.50;99.90
15690;DHT22;7945;48.816;11.506;2023-03-14T03:41:03;10.50;99.90
15690;DHT22;7945;48.816;11.506;2023-03-14T03:43:30;10.60;99.90
15690;DHT22;7945;48.816;11.506;2023-03-14T03:45:56;10.50;99.90
15690;DHT22;7945;48.816;11.506;2023-03-14T03:48:23;10.60;99.90
15690;DHT22;7945;48.816;11.506;2023-03-14T03:50:50;10.60;99.90
15690;DHT22;7945;48.816;11.506;2023-03-14T03:53:18;10.50;99.90
15690;DHT22;7945;48.816;11.506;2023-03-14T03:55:44;10.50;99.90
15690;DHT22;7945;48.816;11.506;2023-03-14T03:58:11;10.60;99.90
15690;DHT22;7945;48.816;11.506;2023-03-14T04:00:38;10.60;99.90
15690;DHT22;7945;48.816;11.506;2023-03-14T04:03:05;10.60;99.90
15690;DHT22;7945;48.816;11.506;2023-03-14T04:05:32;10.60;99.90
15690;DHT22;7945;48.816;11.506;2023-03-14T04:07:59;10.60;99.90
15690;DHT22;7945;48.816;11.506;2023-03-14T04:10:28;10.60;99.90
15690;DHT22;7945;48.816;11.506;2023-03-14T04:12:54;10.60;99.90
15690;DHT22;7945;48.816;11.506;2023-03-14T04:15:21;10.60;99.90
15690;DHT22;7945;48.816;11.506;2023-03-14T04:17:48;10.60;99.90
15690;DHT22;7945;48.816;11.506;2023-03-14T04:20:14;10.60;99.90
15690;DHT22;7945;48.816;11.506;2023-03-14T04:22:41;10.70;99.90
15690;DHT22;7945;48.816;11.506;2023-03-14T04:25:08;10.70;99.90
15690;DHT22;7945;48.816;11.506;2023-03-14T04:27:36;10.70;99.90
15690;DHT22;7945;48.816;11.506;2023-03-14T04:30:04;10.70;99.90
15690;DHT22;7945;48.816;11.506;2023-03-14T04:32:30;10.60;99.90
15690;DHT22;7945;48.816;11.506;2023-03-14T04:34:57;10.60;99.90
15690;DHT22;7945;48.816;11.506;2023-03-14T04:37:24;10.60;99.90
15690;DHT22;7945;48.816;11.506;2023-03-14T04:39:50;10.60;99.90
15690;DHT22;7945;48.816;11.506;2023-03-14T04:42:17;10.50;99.90
15690;DHT22;7945;48.816;11.506;2023-03-14T04:44:45;10.50;99.90
15690;DHT22;7945;48.816;11.506;2023-03-14T04:47:14;10.50;99.90
15690;DHT22;7945;48.816;11.506;2023-03-14T04:49:41;10.50;99.90
15690;DHT22;7945;48.816;11.506;2023-03-14T04:52:08;10.40;99.90
15690;DHT22;7945;48.816;11.506;2023-03-14T04:54:35;10.40;99.90
15690;DHT22;7945;48.816;11.506;2023-03-14T04:57:02;10.40;99.90
15690;DHT22;7945;48.816;11.506;2023-03-14T04:59:28;10.40;99.90
15690;DHT22;7945;48.816;11.506;2023-03-14T05:01:56;10.40;99.90
15690;DHT22;7945;48.816;11.506;2023-03-14T05:04:23;10.30;99.90
15690;DHT22;7945;48.816;11.506;2023-03-14T05:06:50;10.30;99.90
15690;DHT22;7945;48.816;11.506;2023-03-14T05:09:17;10.30;99.90
15690;DHT22;7945;48.816;11.506;2023-03-14T05:11:43;10.30;99.90
15690;DHT22;7945;48.816;11.506;2023-03-14T05:14:10;10.30;99.90
15690;DHT22;7945;48.816;11.506;2023-03-14T05:16:37;10.30;99.90
15690;DHT22;7945;48.816;11.506;2023-03-14T05:19:05;10.30;99.90
15690;DHT22;7945;48.816;11.506;2023-03-14T05:21:32;10.30;99.90
15690;DHT22;7945;48.816;11.506;2023-03-14T05:23:58;10.30;99.90
15690;DHT22;7945;48.816;11.506;2023-03-14T05:26:25;10.30;99.90
15690;DHT22;7945;48.816;11.506;2023-03-14T05:28:52;10.30;99.90
15690;DHT22;7945;48.816;11.506;2023-03-14T05:31:19;10.20;99.90
15690;DHT22;7945;48.816;11.506;2023-03-14T05:33:46;10.20;99.90
15690;DHT22;7945;48.816;11.506;2023-03-14T05:36:14;10.20;99.90
15690;DHT22;7945;48.816;11.506;2023-03-14T05:38:41;10.20;99.90
15690;DHT22;7945;48.816;11.506;2023-03-14T05:41:08;10.10;99.90
15690;DHT22;7945;48.816;11.506;2023-03-14T05:43:35;10.10;99.90
15690;DHT22;7945;48.816;11.506;2023-03-14T05:46:01;10.10;99.90
15690;DHT22;7945;48.816;11.506;2023-03-14T05:48:28;10.10;99.90
15690;DHT22;7945;48.816;11.506;2023-03-14T05:50:55;10.10;99.90
15690;DHT22;7945;48.816;11.506;2023-03-14T05:53:23;10.00;99.90
15690;DHT22;7945;48.816;11.506;2023-03-14T05:55:51;10.00;99.90
15690;DHT22;7945;48.816;11.506;2023-03-14T05:58:18;10.00;99.90
15690;DHT22;7945;48.816;11.506;2023-03-14T06:00:45;10.00;99.90
15690;DHT22;7945;48.816;11.506;2023-03-14T06:03:12;10.00;99.90
15690;DHT22;7945;48.816;11.506;2023-03-14T06:05:39;9.90;99.90
15690;DHT22;7945;48.816;11.506;2023-03-14T06:08:05;9.90;99.90
15690;DHT22;7945;48.816;11.506;2023-03-14T06:10:34;10.00;99.90
15690;DHT22;7945;48.816;11.506;2023-03-14T06:15:18;9.90;99.90
15690;DHT22;7945;48.816;11.506;2023-03-14T06:17:45;9.90;99.90
15690;DHT22;7945;48.816;11.506;2023-03-14T06:20:12;9.90;99.90
15690;DHT22;7945;48.816;11.506;2023-03-14T06:22:39;10.00;99.90
15690;DHT22;7945;48.816;11.506;2023-03-14T06:25:08;9.90;99.90
15690;DHT22;7945;48.816;11.506;2023-03-14T06:27:35;9.90;99.90
15690;DHT22;7945;48.816;11.506;2023-03-14T06:30:01;9.90;99.90
15690;DHT22;7945;48.816;11.506;2023-03-14T06:32:29;9.90;99.90
15690;DHT22;7945;48.816;11.506;2023-03-14T06:34:56;10.00;99.90
15690;DHT22;7945;48.816;11.506;2023-03-14T06:37:26;10.00;99.90
15690;DHT22;7945;48.816;11.506;2023-03-14T06:39:53;9.90;99.90
15690;DHT22;7945;48.816;11.506;2023-03-14T06:42:20;9.90;99.90
15690;DHT22;7945;48.816;11.506;2023-03-14T06:44:46;9.90;99.90
15690;DHT22;7945;48.816;11.506;2023-03-14T06:47:13;10.00;99.90
15690;DHT22;7945;48.816;11.506;2023-03-14T06:49:41;10.00;99.90
15690;DHT22;7945;48.816;11.506;2023-03-14T06:52:08;10.10;99.90
15690;DHT22;7945;48.816;11.506;2023-03-14T06:54:35;10.10;99.90
15690;DHT22;7945;48.816;11.506;2023-03-14T06:57:01;10.10;99.90
15690;DHT22;7945;48.816;11.506;2023-03-14T06:59:28;10.10;99.90
15690;DHT22;7945;48.816;11.506;2023-03-14T07:01:55;10.10;99.90
15690;DHT22;7945;48.816;11.506;2023-03-14T07:04:21;10.10;99.90
15690;DHT22;7945;48.816;11.506;2023-03-14T07:06:50;10.10;99.90
15690;DHT22;7945;48.816;11.506;2023-03-14T07:09:16;10.10;99.90
15690;DHT22;7945;48.816;11.506;2023-03-14T07:11:43;10.20;99.90
15690;DHT22;7945;48.816;11.506;2023-03-14T07:14:10;10.20;99.90
15690;DHT22;7945;48.816;11.506;2023-03-14T07:16:37;10.30;99.90
15690;DHT22;7945;48.816;11.506;2023-03-14T07:19:04;10.40;99.90
15690;DHT22;7945;48.816;11.506;2023-03-14T07:21:30;10.40;99.90
15690;DHT22;7945;48.816;11.506;2023-03-14T07:24:01;10.40;99.90
15690;DHT22;7945;48.816;11.506;2023-03-14T07:26:28;10.40;99.90
15690;DHT22;7945;48.816;11.506;2023-03-14T07:28:54;10.40;99.90
15690;DHT22;7945;48.816;11.506;2023-03-14T07:31:21;10.40;99.90
15690;DHT22;7945;48.816;11.506;2023-03-14T07:33:48;10.50;99.90
15690;DHT22;7945;48.816;11.506;2023-03-14T07:36:15;10.50;99.90
15690;DHT22;7945;48.816;11.506;2023-03-14T07:38:41;10.50;99.90
15690;DHT22;7945;48.816;11.506;2023-03-14T07:41:10;10.50;99.90
15690;DHT22;7945;48.816;11.506;2023-03-14T07:43:36;10.50;99.90
15690;DHT22;7945;48.816;11.506;2023-03-14T07:46:03;10.50;99.90
15690;DHT22;7945;48.816;11.506;2023-03-14T07:48:30;10.50;99.90
15690;DHT22;7945;48.816;11.506;2023-03-14T07:50:57;10.60;99.90
15690;DHT22;7945;48.816;11.506;2023-03-14T07:53:24;10.50;99.90
15690;DHT22;7945;48.816;11.506;2023-03-14T07:55:51;10.60;99.90
15690;DHT22;7945;48.816;11.506;2023-03-14T07:58:20;10.60;99.90
15690;DHT22;7945;48.816;11.506;2023-03-14T08:00:48;10.60;99.90
15690;DHT22;7945;48.816;11.506;2023-03-14T08:03:15;10.60;99.90
15690;DHT22;7945;48.816;11.506;2023-03-14T08:29:29;10.40;99.90
15690;DHT22;7945;48.816;11.506;2023-03-14T08:31:55;11.00;99.90
15690;DHT22;7945;48.816;11.506;2023-03-14T08:34:22;11.10;99.90
15690;DHT22;7945;48.816;11.506;2023-03-14T08:36:49;11.10;99.90
15690;DHT22;7945;48.816;11.506;2023-03-14T08:39:16;11.10;99.90
15690;DHT22;7945;48.816;11.506;2023-03-14T08:41:42;11.10;99.90
15690;DHT22;7945;48.816;11.506;2023-03-14T08:44:10;11.20;99.90
15690;DHT22;7945;48.816;11.506;2023-03-14T08:46:39;11.20;99.90
15690;DHT22;7945;48.816;11.506;2023-03-14T08:49:05;11.20;99.90
15690;DHT22;7945;48.816;11.506;2023-03-14T08:51:32;11.30;99.90
15690;DHT22;7945;48.816;11.506;2023-03-14T08:53:59;11.30;99.90
15690;DHT22;7945;48.816;11.506;2023-03-14T08:56:25;11.30;99.90
15690;DHT22;7945;48.816;11.506;2023-03-14T08:58:52;11.30;99.90
15690;DHT22;7945;48.816;11.506;2023-03-14T09:01:19;11.40;99.90
15690;DHT22;7945;48.816;11.506;2023-03-14T09:03:50;11.40;99.90
15690;DHT22;7945;48.816;11.506;2023-03-14T09:06:17;11.40;99.90
15690;DHT22;7945;48.816;11.506;2023-03-14T09:08:44;11.50;99.90
15690;DHT22;7945;48.816;11.506;2023-03-14T09:11:12;11.50;99.90
15690;DHT22;7945;48.816;11.506;2023-03-14T09:13:40;11.50;99.90
15690;DHT22;7945;48.816;11.506;2023-03-14T09:16:07;11.50;99.90
15690;DHT22;7945;48.816;11.506;2023-03-14T09:18:34;11.50;99.90
15690;DHT22;7945;48.816;11.506;2023-03-14T09:21:03;11.50;99.90
15690;DHT22;7945;48.816;11.506;2023-03-14T09:23:30;11.60;99.90
15690;DHT22;7945;48.816;11.506;2023-03-14T09:25:58;11.60;99.90
15690;DHT22;7945;48.816;11.506;2023-03-14T09:28:26;11.70;99.90
15690;DHT22;7945;48.816;11.506;2023-03-14T09:30:52;11.70;99.90
15690;DHT22;7945;48.816;11.506;2023-03-14T09:33:20;11.90;99.90
15690;DHT22;7945;48.816;11.506;2023-03-14T09:35:46;12.00;99.90
15690;DHT22;7945;48.816;11.506;2023-03-14T09:38:14;12.10;99.90
15690;DHT22;7945;48.816;11.506;2023-03-14T09:40:42;12.20;99.90
15690;DHT22;7945;48.816;11.506;2023-03-14T09:43:10;12.10;99.90
15690;DHT22;7945;48.816;11.506;2023-03-14T09:45:39;12.30;99.90
15690;DHT22;7945;48.816;11.506;2023-03-14T09:48:14;12.30;99.90
15690;DHT22;7945;48.816;11.506;2023-03-14T09:50:43;12.30;99.90
15690;DHT22;7945;48.816;11.506;2023-03-14T09:53:14;12.40;99.90
15690;DHT22;7945;48.816;11.506;2023-03-14T09:55:43;12.40;99.90
15690;DHT22;7945;48.816;11.506;2023-03-14T09:58:13;12.50;99.90
15690;DHT22;7945;48.816;11.506;2023-03-14T10:00:40;12.60;99.90
15690;DHT22;7945;48.816;11.506;2023-03-14T10:03:22;12.80;99.90
15690;DHT22;7945;48.816;11.506;2023-03-14T10:05:50;12.90;99.90
15690;DHT22;7945;48.816;11.506;2023-03-14T10:08:17;13.00;99.90
15690;DHT22;7945;48.816;11.506;2023-03-14T10:10:46;13.00;99.90
15690;DHT22;7945;48.816;11.506;2023-03-14T10:13:16;13.00;99.90
15690;DHT22;7945;48.816;11.506;2023-03-14T10:15:48;12.90;99.90
15690;DHT22;7945;48.816;11.506;2023-03-14T10:18:15;12.90;99.90
15690;DHT22;7945;48.816;11.506;2023-03-14T10:20:43;13.00;99.90
15690;DHT22;7945;48.816;11.506;2023-03-14T10:23:23;13.10;99.90
15690;DHT22;7945;48.816;11.506;2023-03-14T10:26:03;13.30;99.90
15690;DHT22;7945;48.816;11.506;2023-03-14T10:28:33;13.40;99.90
15690;DHT22;7945;48.816;11.506;2023-03-14T10:31:00;13.40;99.40
15690;DHT22;7945;48.816;11.506;2023-03-14T10:33:28;13.40;99.20
15690;DHT22;7945;48.816;11.506;2023-03-14T10:35:57;13.40;99.30
15690;DHT22;7945;48.816;11.506;2023-03-14T10:38:27;13.50;99.80
15690;DHT22;7945;48.816;11.506;2023-03-14T10:40:55;13.50;99.30
15690;DHT22;7945;48.816;11.506;2023-03-14T10:43:26;13.60;98.90
15690;DHT22;7945;48.816;11.506;2023-03-14T10:45:55;13.50;98.50
15690;DHT22;7945;48.816;11.506;2023-03-14T10:48:29;13.50;98.50
15690;DHT22;7945;48.816;11.506;2023-03-14T10:51:02;13.40;98.90
15690;DHT22;7945;48.816;11.506;2023-03-14T10:53:34;13.30;98.50
15690;DHT22;7945;48.816;11.506;2023-03-14T10:56:05;13.30;98.90
15690;DHT22;7945;48.816;11.506;2023-03-14T10:58:38;13.10;99.20
15690;DHT22;7945;48.816;11.506;2023-03-14T11:01:19;13.00;98.70
15690;DHT22;7945;48.816;11.506;2023-03-14T11:03:55;12.90;99.10
15690;DHT22;7945;48.816;11.506;2023-03-14T11:06:30;12.80;99.00
15690;DHT22;7945;48.816;11.506;2023-03-14T11:09:07;12.70;99.30
15690;DHT22;7945;48.816;11.506;2023-03-14T11:11:39;12.70;99.40
15690;DHT22;7945;48.816;11.506;2023-03-14T11:14:17;12.70;99.60
15690;DHT22;7945;48.816;11.506;2023-03-14T11:16:52;12.80;99.50
15690;DHT22;7945;48.816;11.506;2023-03-14T11:19:38;12.90;99.80
15690;DHT22;7945;48.816;11.506;2023-03-14T11:22:17;13.10;99.40
15690;DHT22;7945;48.816;11.506;2023-03-14T11:25:06;13.20;99.40
15690;DHT22;7945;48.816;11.506;2023-03-14T11:27:41;13.20;99.20
15690;DHT22;7945;48.816;11.506;2023-03-14T11:30:18;13.20;99.00
15690;DHT22;7945;48.816;11.506;2023-03-14T11:32:46;13.30;99.40
15690;DHT22;7945;48.816;11.506;2023-03-14T11:35:24;13.40;99.20
15690;DHT22;7945;48.816;11.506;2023-03-14T11:37:56;13.40;99.20
15690;DHT22;7945;48.816;11.506;2023-03-14T11:40:27;13.30;99.20
15690;DHT22;7945;48.816;11.506;2023-03-14T11:42:59;13.40;99.20
15690;DHT22;7945;48.816;11.506;2023-03-14T11:45:32;13.40;99.20
15690;DHT22;7945;48.816;11.506;2023-03-14T11:48:13;13.50;99.20
15690;DHT22;7945;48.816;11.506;2023-03-14T11:50:43;13.70;98.60
15690;DHT22;7945;48.816;11.506;2023-03-14T11:53:13;13.90;98.50
15690;DHT22;7945;48.816;11.506;2023-03-14T11:55:42;14.00;98.20
15690;DHT22;7945;48.816;11.506;2023-03-14T11:58:14;14.10;98.10
15690;DHT22;7945;48.816;11.506;2023-03-14T12:00:43;14.20;97.40
15690;DHT22;7945;48.816;11.506;2023-03-14T12:03:17;14.30;97.60
15690;DHT22;7945;48.816;11.506;2023-03-14T12:05:54;14.40;96.50
15690;DHT22;7945;48.816;11.506;2023-03-14T12:08:33;14.40;97.10
15690;DHT22;7945;48.816;11.506;2023-03-14T12:11:10;14.40;97.10
15690;DHT22;7945;48.816;11.506;2023-03-14T12:13:39;14.30;96.90
15690;DHT22;7945;48.816;11.506;2023-03-14T12:16:26;14.30;97.20
15690;DHT22;7945;48.816;11.506;2023-03-14T12:18:54;14.30;97.30
15690;DHT22;7945;48.816;11.506;2023-03-14T12:21:21;14.30;97.10
15690;DHT22;7945;48.816;11.506;2023-03-14T12:23:50;14.20;96.70
15690;DHT22;7945;48.816;11.506;2023-03-14T12:26:19;14.20;97.20
15690;DHT22;7945;48.816;11.506;2023-03-14T12:28:49;14.10;97.20
15690;DHT22;7945;48.816;11.506;2023-03-14T12:31:43;14.00;97.10
15690;DHT22;7945;48.816;11.506;2023-03-14T12:34:31;13.80;97.20
15690;DHT22;7945;48.816;11.506;2023-03-14T12:37:26;13.70;97.40
15690;DHT22;7945;48.816;11.506;2023-03-14T12:40:03;13.60;97.60
15690;DHT22;7945;48.816;11.506;2023-03-14T12:42:40;13.60;97.70
15690;DHT22;7945;48.816;11.506;2023-03-14T12:45:31;13.60;98.60
15690;DHT22;7945;48.816;11.506;2023-03-14T12:48:08;13.60;97.20
15690;DHT22;7945;48.816;11.506;2023-03-14T12:50:43;13.90;97.20
15690;DHT22;7945;48.816;11.506;2023-03-14T12:53:44;14.10;96.80
15690;DHT22;7945;48.816;11.506;2023-03-14T12:56:24;14.30;96.40
15690;DHT22;7945;48.816;11.506;2023-03-14T12:59:05;14.30;96.10
15690;DHT22;7945;48.816;11.506;2023-03-14T13:01:35;14.40;96.30
15690;DHT22;7945;48.816;11.506;2023-03-14T13:04:08;14.30;95.80
15690;DHT22;7945;48.816;11.506;2023-03-14T13:06:49;14.20;96.00
15690;DHT22;7945;48.816;11.506;2023-03-14T13:09:36;14.10;96.50
15690;DHT22;7945;48.816;11.506;2023-03-14T13:12:17;14.00;96.50
15690;DHT22;7945;48.816;11.506;2023-03-14T13:14:46;13.90;96.50
15690;DHT22;7945;48.816;11.506;2023-03-14T13:17:18;13.70;97.60
15690;DHT22;7945;48.816;11.506;2023-03-14T13:19:51;13.60;98.30
15690;DHT22;7945;48.816;11.506;2023-03-14T13:22:22;13.40;99.90
15690;DHT22;7945;48.816;11.506;2023-03-14T13:24:50;13.30;99.90
15690;DHT22;7945;48.816;11.506;2023-03-14T13:27:18;13.20;99.90
15690;DHT22;7945;48.816;11.506;2023-03-14T13:29:48;13.10;99.90
15690;DHT22;7945;48.816;11.506;2023-03-14T13:32:17;13.00;99.90
15690;DHT22;7945;48.816;11.506;2023-03-14T13:34:45;13.00;99.90
15690;DHT22;7945;48.816;11.506;2023-03-14T13:37:17;12.90;99.90
15690;DHT22;7945;48.816;11.506;2023-03-14T13:39:49;12.70;99.90
15690;DHT22;7945;48.816;11.506;2023-03-14T13:42:17;12.50;99.90
15690;DHT22;7945;48.816;11.506;2023-03-14T13:44:43;12.40;99.90
15690;DHT22;7945;48.816;11.506;2023-03-14T13:47:14;12.20;99.90
15690;DHT22;7945;48.816;11.506;2023-03-14T13:49:41;12.10;99.90
15690;DHT22;7945;48.816;11.506;2023-03-14T13:52:24;11.90;99.90
15690;DHT22;7945;48.816;11.506;2023-03-14T13:54:54;11.80;99.90
15690;DHT22;7945;48.816;11.506;2023-03-14T13:57:21;11.60;99.90
15690;DHT22;7945;48.816;11.506;2023-03-14T14:00:00;11.60;99.90
15690;DHT22;7945;48.816;11.506;2023-03-14T15:18:16;10.20;99.90
15690;DHT22;7945;48.816;11.506;2023-03-14T15:20:44;10.80;99.90
15690;DHT22;7945;48.816;11.506;2023-03-14T15:23:12;10.80;99.90
15690;DHT22;7945;48.816;11.506;2023-03-14T15:25:39;10.70;99.90
15690;DHT22;7945;48.816;11.506;2023-03-14T15:28:14;10.70;99.90
15690;DHT22;7945;48.816;11.506;2023-03-14T15:30:42;10.70;99.90
15690;DHT22;7945;48.816;11.506;2023-03-14T15:33:09;10.60;99.60
15690;DHT22;7945;48.816;11.506;2023-03-14T15:35:37;10.50;99.90
15690;DHT22;7945;48.816;11.506;2023-03-14T15:38:04;10.50;99.90
15690;DHT22;7945;48.816;11.506;2023-03-14T15:40:31;10.40;99.10
15690;DHT22;7945;48.816;11.506;2023-03-14T15:42:58;10.40;99.10
15690;DHT22;7945;48.816;11.506;2023-03-14T15:45:25;10.30;98.90
15690;DHT22;7945;48.816;11.506;2023-03-14T15:47:51;10.40;99.40
15690;DHT22;7945;48.816;11.506;2023-03-14T15:50:18;10.30;98.80
15690;DHT22;7945;48.816;11.506;2023-03-14T15:52:46;10.30;98.70
15690;DHT22;7945;48.816;11.506;2023-03-14T15:55:13;10.30;98.10
15690;DHT22;7945;48.816;11.506;2023-03-14T15:57:40;10.30;97.50
15690;DHT22;7945;48.816;11.506;2023-03-14T16:00:10;10.30;98.70
15690;DHT22;7945;48.816;11.506;2023-03-14T16:02:40;10.20;95.90
15690;DHT22;7945;48.816;11.506;2023-03-14T16:05:08;10.40;96.90
15690;DHT22;7945;48.816;11.506;2023-03-14T16:07:35;10.30;95.60
15690;DHT22;7945;48.816;11.506;2023-03-14T16:10:04;10.30;97.30
15690;DHT22;7945;48.816;11.506;2023-03-14T16:12:32;10.20;96.40
15690;DHT22;7945;48.816;11.506;2023-03-14T16:14:59;10.20;97.00
15690;DHT22;7945;48.816;11.506;2023-03-14T16:17:26;10.20;96.60
15690;DHT22;7945;48.816;11.506;2023-03-14T16:19:52;10.20;95.80
15690;DHT22;7945;48.816;11.506;2023-03-14T16:22:19;10.20;96.30
15690;DHT22;7945;48.816;11.506;2023-03-14T16:24:46;10.20;95.00
15690;DHT22;7945;48.816;11.506;2023-03-14T16:27:14;10.10;94.30
15690;DHT22;7945;48.816;11.506;2023-03-14T16:29:41;10.00;93.30
15690;DHT22;7945;48.816;11.506;2023-03-14T16:32:08;9.90;92.00
15690;DHT22;7945;48.816;11.506;2023-03-14T16:34:37;9.80;92.50
15690;DHT22;7945;48.816;11.506;2023-03-14T16:37:04;9.80;91.60
15690;DHT22;7945;48.816;11.506;2023-03-14T16:39:31;9.80;93.60
15690;DHT22;7945;48.816;11.506;2023-03-14T16:41:58;9.70;92.30
15690;DHT22;7945;48.816;11.506;2023-03-14T16:44:26;9.60;92.70
15690;DHT22;7945;48.816;11.506;2023-03-14T16:46:53;9.60;92.70
15690;DHT22;7945;48.816;11.506;2023-03-14T16:49:19;9.50;92.50
15690;DHT22;7945;48.816;11.506;2023-03-14T16:51:46;9.50;93.10
15690;DHT22;7945;48.816;11.506;2023-03-14T16:54:13;9.40;93.50
15690;DHT22;7945;48.816;11.506;2023-03-14T16:56:39;9.40;94.00
15690;DHT22;7945;48.816;11.506;2023-03-14T16:59:06;9.40;93.80
15690;DHT22;7945;48.816;11.506;2023-03-14T17:01:34;9.30;93.30
15690;DHT22;7945;48.816;11.506;2023-03-14T17:04:02;9.30;92.60
15690;DHT22;7945;48.816;11.506;2023-03-14T17:06:29;9.20;93.90
15690;DHT22;7945;48.816;11.506;2023-03-14T17:08:56;9.20;92.50
15690;DHT22;7945;48.816;11.506;2023-03-14T17:11:23;9.10;93.00
15690;DHT22;7945;48.816;11.506;2023-03-14T17:13:50;9.20;94.40
15690;DHT22;7945;48.816;11.506;2023-03-14T17:16:17;9.20;93.40
15690;DHT22;7945;48.816;11.506;2023-03-14T17:18:45;9.20;92.80
15690;DHT22;7945;48.816;11.506;2023-03-14T17:21:12;9.20;92.90
15690;DHT22;7945;48.816;11.506;2023-03-14T17:23:38;9.30;93.20
15690;DHT22;7945;48.816;11.506;2023-03-14T17:26:05;9.30;94.00